createdAt,value
2022-11-29T00:01:16.108Z,10.45
2022-11-29T00:03:43.141Z,9.55
2022-11-29T00:06:13.047Z,10.80
2022-11-29T00:08:41.482Z,10.45
2022-11-29T00:11:10.937Z,9.93
2022-11-29T00:13:38.346Z,9.07
2022-11-29T00:16:07.491Z,10.32
2022-11-29T00:18:34.775Z,9.98
2022-11-29T00:21:27.447Z,9.57
2022-11-29T00:23:54.705Z,9.13
2022-11-29T00:26:21.652Z,8.98
2022-11-29T00:28:48.545Z,9.23
2022-11-29T00:31:21.935Z,9.00
2022-11-29T00:33:49.715Z,9.18
2022-11-29T00:36:17.074Z,9.57
2022-11-29T00:38:44.236Z,10.27
2022-11-29T00:41:11.875Z,10.73
2022-11-29T00:43:39.387Z,9.63
2022-11-29T00:46:06.376Z,8.90
2022-11-29T00:48:33.463Z,8.67
2022-11-29T00:51:00.336Z,8.98
2022-11-29T00:53:27.244Z,8.30
2022-11-29T00:55:54.240Z,9.23
2022-11-29T00:58:21.609Z,9.38
2022-11-29T01:00:48.616Z,9.90
2022-11-29T01:03:16.640Z,8.68
2022-11-29T01:05:44.102Z,9.05
2022-11-29T01:08:11.937Z,9.75
2022-11-29T01:10:38.574Z,8.75
2022-11-29T01:13:06.540Z,8.97
2022-11-29T01:15:33.427Z,8.45
2022-11-29T01:18:00.424Z,8.35
2022-11-29T01:20:27.333Z,7.32
2022-11-29T01:22:54.303Z,7.60
2022-11-29T01:25:21.100Z,8.37
2022-11-29T01:27:48.047Z,8.27
2022-11-29T01:30:14.916Z,7.35
2022-11-29T01:32:42.174Z,7.60
2022-11-29T01:35:09.040Z,7.65
2022-11-29T01:37:35.991Z,6.80
2022-11-29T01:40:03.510Z,6.72
2022-11-29T01:42:30.405Z,7.43
2022-11-29T01:45:08.029Z,6.68
2022-11-29T01:47:40.585Z,6.30
2022-11-29T01:50:08.146Z,6.57
2022-11-29T01:52:35.115Z,5.90
2022-11-29T01:55:05.155Z,6.38
2022-11-29T01:57:33.914Z,6.72
2022-11-29T02:00:06.402Z,6.95
2022-11-29T02:02:45.827Z,6.33
2022-11-29T02:05:14.485Z,5.90
2022-11-29T02:07:45.864Z,6.13
2022-11-29T02:10:13.746Z,5.85
2022-11-29T02:12:58.198Z,6.15
2022-11-29T02:15:51.529Z,5.50
2022-11-29T02:18:39.461Z,5.40
2022-11-29T02:21:24.181Z,5.97
2022-11-29T02:24:10.887Z,5.50
2022-11-29T02:27:03.685Z,6.28
2022-11-29T02:30:05.089Z,5.40
2022-11-29T02:32:37.718Z,5.45
2022-11-29T02:35:36.494Z,6.18
2022-11-29T02:38:23.453Z,6.00
2022-11-29T02:40:56.514Z,6.45
2022-11-29T02:43:35.223Z,5.83
2022-11-29T02:46:39.358Z,5.10
2022-11-29T02:49:32.851Z,5.53
2022-11-29T02:52:28.990Z,5.38
2022-11-29T02:55:04.711Z,5.70
2022-11-29T02:58:01.049Z,7.50
2022-11-29T03:00:28.534Z,7.13
2022-11-29T03:03:09.201Z,8.65
2022-11-29T03:05:45.433Z,10.38
2022-11-29T03:08:20.372Z,10.70
2022-11-29T03:10:55.276Z,7.10
2022-11-29T03:13:56.356Z,7.00
2022-11-29T03:16:39.686Z,6.90
2022-11-29T03:19:30.995Z,7.70
2022-11-29T03:22:06.555Z,8.73
2022-11-29T03:24:41.818Z,10.10
2022-11-29T03:27:24.020Z,8.00
2022-11-29T03:29:57.857Z,7.13
2022-11-29T03:32:49.387Z,6.25
2022-11-29T03:35:29.841Z,8.05
2022-11-29T03:38:30.001Z,8.20
2022-11-29T03:41:18.079Z,6.82
2022-11-29T03:43:55.149Z,6.40
2022-11-29T03:46:46.374Z,6.43
2022-11-29T03:49:25.613Z,6.75
2022-11-29T03:52:20.073Z,6.63
2022-11-29T03:55:00.615Z,6.65
2022-11-29T03:57:53.845Z,7.63
2022-11-29T04:00:21.101Z,8.63
2022-11-29T04:03:14.833Z,10.13
2022-11-29T04:05:57.455Z,7.60
2022-11-29T04:08:27.870Z,6.70
2022-11-29T04:11:16.060Z,5.90
2022-11-29T04:13:58.189Z,8.15
2022-11-29T04:17:04.261Z,11.57
2022-11-29T04:19:40.149Z,7.97
2022-11-29T04:22:37.789Z,8.05
2022-11-29T04:25:19.978Z,7.00
2022-11-29T04:28:14.751Z,6.78
2022-11-29T04:31:16.589Z,6.38
2022-11-29T04:34:10.870Z,5.73
2022-11-29T04:36:59.327Z,5.82
2022-11-29T04:39:32.084Z,5.22
2022-11-29T04:42:20.380Z,6.10
2022-11-29T04:45:14.645Z,10.50
2022-11-29T04:48:02.168Z,11.63
2022-11-29T04:50:54.502Z,9.15
2022-11-29T04:53:47.951Z,8.15
2022-11-29T04:56:29.853Z,5.93
2022-11-29T04:59:25.701Z,6.78
2022-11-29T05:02:07.168Z,6.80
2022-11-29T05:04:52.399Z,6.78
2022-11-29T05:07:33.554Z,8.20
2022-11-29T05:10:22.208Z,8.63
2022-11-29T05:12:59.791Z,9.68
2022-11-29T05:16:03.093Z,7.47
2022-11-29T05:19:04.326Z,6.80
2022-11-29T05:22:08.486Z,7.10
2022-11-29T05:24:46.424Z,5.43
2022-11-29T05:27:24.189Z,7.20
2022-11-29T05:30:03.327Z,9.60
2022-11-29T05:32:45.593Z,9.35
2022-11-29T05:35:24.363Z,8.20
2022-11-29T05:38:29.100Z,8.57
2022-11-29T05:41:16.862Z,7.30
2022-11-29T05:43:54.163Z,8.20
2022-11-29T05:46:54.088Z,7.32
2022-11-29T05:49:31.353Z,7.28
2022-11-29T05:52:04.066Z,6.20
2022-11-29T05:54:40.669Z,6.47
2022-11-29T05:57:19.244Z,9.00
2022-11-29T05:59:49.099Z,8.32
2022-11-29T06:02:56.135Z,9.50
2022-11-29T06:05:37.234Z,7.13
2022-11-29T06:08:15.758Z,8.43
2022-11-29T06:11:00.889Z,12.67
2022-11-29T06:13:39.886Z,11.15
2022-11-29T06:16:31.818Z,11.05
2022-11-29T06:19:11.252Z,10.27
2022-11-29T06:21:56.515Z,8.50
2022-11-29T06:25:01.535Z,10.50
2022-11-29T06:28:13.572Z,8.05
2022-11-29T06:30:56.308Z,10.30
2022-11-29T06:33:29.545Z,10.45
2022-11-29T06:36:25.664Z,12.63
2022-11-29T06:38:53.033Z,12.83
2022-11-29T06:41:22.873Z,11.95
2022-11-29T06:43:50.636Z,13.77
2022-11-29T06:46:30.544Z,13.15
2022-11-29T06:49:10.063Z,12.43
2022-11-29T06:52:00.139Z,15.23
2022-11-29T06:54:45.483Z,13.25
2022-11-29T06:57:45.012Z,12.25
2022-11-29T07:00:15.143Z,11.75
2022-11-29T07:03:03.859Z,10.93
2022-11-29T07:05:32.959Z,11.27
2022-11-29T07:08:06.148Z,9.10
2022-11-29T07:10:36.626Z,9.45
2022-11-29T07:13:04.293Z,10.60
2022-11-29T07:15:31.880Z,9.43
2022-11-29T07:18:29.070Z,10.77
2022-11-29T07:21:04.877Z,13.63
2022-11-29T07:23:37.128Z,16.38
2022-11-29T07:26:14.953Z,18.00
2022-11-29T07:28:58.885Z,16.60
2022-11-29T07:31:41.954Z,16.80
2022-11-29T07:34:36.260Z,16.08
2022-11-29T07:37:23.988Z,16.65
2022-11-29T07:40:14.054Z,15.90
2022-11-29T07:43:25.545Z,12.57
2022-11-29T07:45:53.942Z,11.00
2022-11-29T07:48:20.880Z,12.00
2022-11-29T07:50:48.285Z,12.73
2022-11-29T07:53:20.148Z,14.13
2022-11-29T07:55:47.708Z,14.45
2022-11-29T07:58:16.037Z,16.90
2022-11-29T08:00:43.955Z,17.67
2022-11-29T08:03:11.168Z,18.45
2022-11-29T08:05:38.996Z,16.70
2022-11-29T08:08:06.935Z,17.98
2022-11-29T08:10:34.508Z,19.17
2022-11-29T08:13:01.474Z,17.58
2022-11-29T08:15:28.711Z,19.92
2022-11-29T08:17:55.745Z,16.83
2022-11-29T08:20:22.686Z,17.05
2022-11-29T08:22:58.307Z,15.37
2022-11-29T08:25:26.958Z,12.17
2022-11-29T08:27:54.807Z,12.27
2022-11-29T08:30:22.485Z,11.55
2022-11-29T08:32:51.692Z,12.50
2022-11-29T08:35:21.163Z,13.25
2022-11-29T08:37:48.553Z,12.97
2022-11-29T08:40:15.746Z,15.98
2022-11-29T08:42:42.690Z,13.95
2022-11-29T08:45:10.973Z,12.13
2022-11-29T08:47:39.006Z,11.57
2022-11-29T08:50:14.651Z,11.43
2022-11-29T08:53:05.997Z,10.50
2022-11-29T08:55:40.181Z,11.05
2022-11-29T08:58:09.777Z,11.23
2022-11-29T09:00:37.675Z,11.98
2022-11-29T09:03:24.456Z,11.03
2022-11-29T09:05:51.440Z,13.93
2022-11-29T09:08:18.859Z,14.45
2022-11-29T09:10:45.815Z,12.23
2022-11-29T09:13:13.000Z,15.15
2022-11-29T09:15:41.882Z,20.10
2022-11-29T09:18:09.198Z,16.98
2022-11-29T09:20:35.930Z,18.10
2022-11-29T09:23:03.138Z,17.10
2022-11-29T09:25:29.800Z,20.00
2022-11-29T09:27:58.567Z,17.67
2022-11-29T09:30:25.236Z,18.20
2022-11-29T09:32:52.288Z,18.23
2022-11-29T09:35:18.936Z,19.08
2022-11-29T09:37:45.833Z,16.85
2022-11-29T09:40:19.894Z,12.63
2022-11-29T09:43:06.422Z,12.45
2022-11-29T09:45:38.491Z,11.15
2022-11-29T09:48:08.403Z,9.75
2022-11-29T09:50:36.787Z,9.18
2022-11-29T09:53:21.798Z,10.60
2022-11-29T09:56:03.258Z,10.05
2022-11-29T09:58:38.167Z,11.50
2022-11-29T10:01:09.253Z,15.07
2022-11-29T10:03:42.360Z,11.48
2022-11-29T10:06:21.666Z,10.20
2022-11-29T10:09:04.125Z,10.30
2022-11-29T10:11:49.793Z,10.00
2022-11-29T10:14:21.120Z,8.32
2022-11-29T10:16:52.349Z,8.20
2022-11-29T10:19:33.997Z,10.20
2022-11-29T10:22:18.353Z,9.40
2022-11-29T10:24:48.858Z,8.15
2022-11-29T10:27:23.720Z,8.15
2022-11-29T10:29:51.292Z,8.05
2022-11-29T10:32:21.306Z,6.93
2022-11-29T10:34:49.439Z,6.40
2022-11-29T10:37:18.930Z,7.63
2022-11-29T10:39:46.102Z,7.90
2022-11-29T10:42:42.936Z,9.13
2022-11-29T10:45:27.235Z,9.30
2022-11-29T10:48:03.536Z,9.35
2022-11-29T10:50:33.652Z,10.00
2022-11-29T10:53:09.988Z,8.80
2022-11-29T10:55:45.744Z,7.82
2022-11-29T10:58:28.439Z,6.60
2022-11-29T11:01:07.174Z,5.15
2022-11-29T11:03:44.050Z,4.03
2022-11-29T11:06:15.826Z,9.10
2022-11-29T11:08:46.189Z,9.15
2022-11-29T11:11:14.829Z,8.40
2022-11-29T11:13:42.114Z,11.50
2022-11-29T11:16:20.255Z,8.63
2022-11-29T11:18:47.946Z,7.93
2022-11-29T11:21:18.008Z,5.88
2022-11-29T11:23:58.362Z,4.73
2022-11-29T11:26:26.572Z,6.07
2022-11-29T11:29:00.065Z,9.07
2022-11-29T11:31:34.740Z,14.52
2022-11-29T11:34:26.608Z,10.73
2022-11-29T11:37:13.412Z,7.77
2022-11-29T11:39:40.579Z,10.65
2022-11-29T11:42:32.990Z,12.75
2022-11-29T11:45:01.177Z,8.40
2022-11-29T11:47:30.890Z,8.70
2022-11-29T11:50:00.543Z,6.70
2022-11-29T11:52:49.892Z,5.60
2022-11-29T11:55:37.169Z,4.03
2022-11-29T11:58:10.351Z,5.03
2022-11-29T12:01:03.010Z,3.70
2022-11-29T12:03:51.527Z,3.10
2022-11-29T12:06:29.666Z,3.43
2022-11-29T12:09:09.055Z,3.58
2022-11-29T12:11:44.275Z,3.35
2022-11-29T12:14:21.826Z,3.35
2022-11-29T12:16:52.311Z,3.58
2022-11-29T12:19:25.106Z,3.57
2022-11-29T12:21:58.085Z,4.15
2022-11-29T12:24:31.205Z,4.88
2022-11-29T12:27:03.407Z,5.82
2022-11-29T12:29:33.495Z,6.28
2022-11-29T12:32:29.315Z,6.70
2022-11-29T12:34:56.127Z,5.10
2022-11-29T12:37:35.548Z,6.63
2022-11-29T12:40:11.634Z,5.07
2022-11-29T12:43:15.876Z,5.03
2022-11-29T12:45:57.258Z,4.33
2022-11-29T12:48:48.291Z,4.28
2022-11-29T12:51:35.777Z,4.25
2022-11-29T12:54:21.088Z,4.25
2022-11-29T12:57:14.379Z,3.60
2022-11-29T12:59:59.204Z,2.93
2022-11-29T13:02:42.916Z,3.78
2022-11-29T13:05:15.791Z,2.50
2022-11-29T13:08:08.063Z,3.42
2022-11-29T13:10:40.040Z,2.95
2022-11-29T13:13:28.182Z,2.63
2022-11-29T13:16:03.216Z,2.65
2022-11-29T13:18:50.391Z,2.58
2022-11-29T13:21:25.738Z,2.53
2022-11-29T13:24:12.680Z,3.70
2022-11-29T13:26:41.175Z,2.90
2022-11-29T13:29:14.831Z,3.13
2022-11-29T13:31:41.749Z,2.75
2022-11-29T13:34:14.761Z,2.72
2022-11-29T13:36:47.697Z,2.88
2022-11-29T13:39:21.985Z,3.23
2022-11-29T13:42:16.749Z,3.20
2022-11-29T13:45:20.688Z,3.13
2022-11-29T13:47:52.506Z,3.33
2022-11-29T13:50:43.675Z,2.70
2022-11-29T13:53:20.517Z,3.10
2022-11-29T13:56:02.565Z,2.88
2022-11-29T13:58:29.335Z,3.10
2022-11-29T14:01:05.082Z,3.17
2022-11-29T14:03:38.491Z,3.20
2022-11-29T14:06:13.203Z,3.83
2022-11-29T14:11:42.334Z,3.72
2022-11-29T14:14:21.534Z,3.17
2022-11-29T14:16:57.963Z,3.47
2022-11-29T14:19:33.337Z,3.10
2022-11-29T14:22:07.052Z,4.20
2022-11-29T14:24:36.933Z,4.57
2022-11-29T14:27:09.992Z,4.10
2022-11-29T14:29:55.071Z,4.93
2022-11-29T14:32:53.170Z,4.97
2022-11-29T14:35:46.625Z,5.70
2022-11-29T14:38:20.308Z,5.30
2022-11-29T14:41:13.815Z,4.93
2022-11-29T14:43:41.555Z,4.80
2022-11-29T14:46:14.435Z,6.40
2022-11-29T14:48:48.106Z,7.00
2022-11-29T14:51:17.696Z,6.20
2022-11-29T14:53:47.673Z,6.30
2022-11-29T14:56:30.283Z,5.60
2022-11-29T14:59:34.735Z,5.70
2022-11-29T15:02:16.683Z,5.20
2022-11-29T15:04:44.764Z,4.50
2022-11-29T15:07:18.623Z,4.20
2022-11-29T15:09:50.374Z,4.90
2022-11-29T15:12:21.693Z,4.93
2022-11-29T15:15:06.897Z,5.03
2022-11-29T15:17:53.947Z,4.60
2022-11-29T15:20:35.892Z,4.60
2022-11-29T15:23:05.605Z,7.07
2022-11-29T15:25:34.010Z,6.90
2022-11-29T15:28:06.183Z,11.07
2022-11-29T15:30:41.417Z,10.48
2022-11-29T15:33:19.918Z,16.77
2022-11-29T15:35:55.227Z,15.50
2022-11-29T15:38:23.886Z,10.33
2022-11-29T15:40:53.404Z,9.57
2022-11-29T15:43:26.248Z,7.90
2022-11-29T15:45:55.608Z,7.45
2022-11-29T15:48:25.452Z,8.13
2022-11-29T15:50:58.026Z,8.00
2022-11-29T15:53:47.479Z,8.48
2022-11-29T15:56:20.476Z,7.05
2022-11-29T15:58:47.814Z,8.48
2022-11-29T16:01:20.724Z,8.93
2022-11-29T16:03:51.015Z,9.10
2022-11-29T16:06:41.036Z,9.02
2022-11-29T16:09:19.834Z,10.80
2022-11-29T16:11:48.243Z,8.50
2022-11-29T16:14:20.588Z,8.75
2022-11-29T16:16:50.152Z,11.70
2022-11-29T16:19:28.454Z,11.15
2022-11-29T16:22:23.620Z,11.35
2022-11-29T16:25:06.778Z,12.75
2022-11-29T16:27:36.027Z,10.70
2022-11-29T16:30:04.302Z,8.40
2022-11-29T16:32:37.244Z,7.45
2022-11-29T16:35:13.291Z,7.40
2022-11-29T16:37:44.664Z,5.05
2022-11-29T16:40:25.327Z,4.75
2022-11-29T16:43:04.508Z,5.20
2022-11-29T16:45:33.614Z,4.50
2022-11-29T16:48:01.619Z,5.50
2022-11-29T16:50:32.929Z,7.25
2022-11-29T16:53:35.472Z,6.85
2022-11-29T16:56:02.947Z,6.37
2022-11-29T16:58:29.875Z,7.50
2022-11-29T17:00:56.702Z,7.18
2022-11-29T17:03:23.616Z,9.38
2022-11-29T17:05:50.312Z,9.50
2022-11-29T17:08:17.329Z,7.00
2022-11-29T17:10:43.948Z,5.90
2022-11-29T17:13:11.350Z,5.05
2022-11-29T17:15:38.007Z,5.68
2022-11-29T17:18:04.939Z,4.50
2022-11-29T17:20:31.642Z,4.73
2022-11-29T17:22:58.464Z,4.30
2022-11-29T17:25:25.085Z,4.30
2022-11-29T17:27:51.992Z,4.75
2022-11-29T17:30:18.586Z,4.80
2022-11-29T17:32:45.445Z,4.70
2022-11-29T17:35:12.038Z,4.82
2022-11-29T17:37:38.924Z,5.30
2022-11-29T17:40:06.100Z,4.88
2022-11-29T17:42:33.078Z,6.32
2022-11-29T17:44:59.839Z,5.97
2022-11-29T17:47:26.731Z,4.88
2022-11-29T17:49:53.401Z,5.55
2022-11-29T17:52:20.254Z,4.35
2022-11-29T17:54:46.839Z,5.00
2022-11-29T17:57:13.765Z,4.93
2022-11-29T17:59:40.382Z,4.60
2022-11-29T18:02:07.328Z,4.53
2022-11-29T18:04:34.026Z,6.32
2022-11-29T18:07:01.533Z,11.30
2022-11-29T18:09:28.153Z,7.40
2022-11-29T18:11:55.169Z,7.30
2022-11-29T18:14:23.842Z,7.22
2022-11-29T18:16:51.353Z,6.10
2022-11-29T18:19:20.943Z,5.22
2022-11-29T18:21:48.885Z,5.13
2022-11-29T18:24:15.632Z,5.13
2022-11-29T18:26:43.345Z,5.53
2022-11-29T18:29:10.376Z,4.82
2022-11-29T18:31:40.065Z,4.65
2022-11-29T18:34:11.163Z,5.55
2022-11-29T18:36:46.597Z,7.23
2022-11-29T18:39:15.875Z,6.90
2022-11-29T18:41:46.965Z,5.13
2022-11-29T18:44:16.005Z,5.60
2022-11-29T18:46:44.767Z,4.07
2022-11-29T18:49:16.111Z,4.83
2022-11-29T18:51:44.754Z,4.35
2022-11-29T18:54:12.194Z,3.80
2022-11-29T18:56:39.510Z,4.55
2022-11-29T18:59:10.337Z,4.60
2022-11-29T19:01:41.187Z,4.47
2022-11-29T19:04:11.014Z,4.40
2022-11-29T19:06:40.218Z,4.10
2022-11-29T19:09:11.787Z,4.53
2022-11-29T19:11:39.088Z,4.50
2022-11-29T19:14:11.730Z,4.60
2022-11-29T19:16:42.128Z,4.25
2022-11-29T19:19:09.912Z,3.80
2022-11-29T19:21:39.682Z,4.18
2022-11-29T19:24:13.639Z,4.03
2022-11-29T19:26:44.329Z,4.70
2022-11-29T19:29:12.260Z,4.20
2022-11-29T19:31:39.618Z,4.07
2022-11-29T19:34:06.968Z,4.43
2022-11-29T19:36:34.273Z,5.07
2022-11-29T19:39:01.806Z,3.83
2022-11-29T19:41:33.870Z,4.32
2022-11-29T19:44:04.246Z,3.80
2022-11-29T19:46:37.790Z,3.90
2022-11-29T19:49:06.077Z,3.45
2022-11-29T19:51:34.799Z,3.60
2022-11-29T19:54:04.615Z,3.70
2022-11-29T19:56:32.827Z,3.67
2022-11-29T19:59:00.242Z,4.10
2022-11-29T20:01:37.706Z,4.65
2022-11-29T20:04:07.543Z,4.40
2022-11-29T20:06:35.184Z,4.57
2022-11-29T20:09:04.213Z,3.50
2022-11-29T20:11:32.209Z,3.55
2022-11-29T20:14:03.309Z,3.50
2022-11-29T20:16:31.052Z,3.63
2022-11-29T20:18:59.207Z,3.60
2022-11-29T20:21:32.646Z,3.40
2022-11-29T20:24:05.850Z,2.92
2022-11-29T20:26:37.377Z,3.60
2022-11-29T20:29:05.965Z,3.23
2022-11-29T20:31:34.479Z,2.72
2022-11-29T20:34:01.640Z,2.65
2022-11-29T20:36:53.830Z,2.80
2022-11-29T20:39:28.514Z,2.70
2022-11-29T20:42:10.601Z,2.50
2022-11-29T20:44:44.138Z,2.28
2022-11-29T20:47:17.328Z,2.40
2022-11-29T20:49:44.904Z,2.75
2022-11-29T20:52:49.093Z,2.53
2022-11-29T20:55:15.929Z,2.50
2022-11-29T20:57:43.011Z,2.90
2022-11-29T21:00:11.481Z,2.80
2022-11-29T21:02:38.770Z,3.90
2022-11-29T21:05:06.414Z,4.20
2022-11-29T21:07:33.948Z,4.80
2022-11-29T21:10:01.634Z,4.72
2022-11-29T21:12:30.284Z,4.50
2022-11-29T21:14:57.723Z,4.40
2022-11-29T21:17:30.227Z,4.55
2022-11-29T21:20:00.394Z,4.10
2022-11-29T21:22:39.656Z,4.82
2022-11-29T21:25:06.343Z,4.55
2022-11-29T21:27:34.453Z,4.15
2022-11-29T21:30:05.669Z,4.85
2022-11-29T21:32:33.456Z,5.43
2022-11-29T21:35:00.184Z,5.00
2022-11-29T21:37:29.886Z,5.32
2022-11-29T21:39:57.563Z,4.82
2022-11-29T21:42:24.569Z,4.85
2022-11-29T21:44:51.232Z,5.00
2022-11-29T21:47:18.133Z,5.13
2022-11-29T21:49:46.288Z,5.43
2022-11-29T21:52:17.696Z,5.18
2022-11-29T21:54:47.574Z,4.80
2022-11-29T21:57:14.695Z,5.67
2022-11-29T21:59:41.348Z,5.60
2022-11-29T22:02:08.393Z,5.32
2022-11-29T22:04:35.059Z,4.95
2022-11-29T22:07:02.004Z,4.13
2022-11-29T22:09:29.001Z,4.27
2022-11-29T22:11:58.147Z,5.45
2022-11-29T22:14:24.966Z,5.43
2022-11-29T22:16:57.326Z,5.00
2022-11-29T22:19:25.498Z,4.22
2022-11-29T22:21:55.230Z,4.40
2022-11-29T22:24:24.116Z,3.75
2022-11-29T22:26:52.374Z,3.50
2022-11-29T22:29:19.491Z,4.05
2022-11-29T22:31:49.263Z,3.75
2022-11-29T22:34:16.604Z,3.77
2022-11-29T22:36:43.568Z,3.88
2022-11-29T22:39:10.393Z,3.88
2022-11-29T22:41:39.116Z,3.90
2022-11-29T22:44:06.420Z,4.15
2022-11-29T22:46:35.506Z,4.07
2022-11-29T22:49:03.121Z,3.83
2022-11-29T22:51:32.560Z,4.00
2022-11-29T22:54:01.346Z,3.92
2022-11-29T22:56:30.858Z,3.97
2022-11-29T22:58:57.907Z,4.57
2022-11-29T23:01:27.526Z,4.55
2022-11-29T23:03:57.059Z,4.55
2022-11-29T23:06:29.160Z,3.97
2022-11-29T23:08:58.473Z,4.28
2022-11-29T23:11:28.303Z,4.43
2022-11-29T23:13:55.338Z,4.78
2022-11-29T23:16:25.700Z,4.90
2022-11-29T23:18:53.777Z,4.30
2022-11-29T23:21:26.401Z,7.00
2022-11-29T23:23:56.582Z,6.57
2022-11-29T23:26:39.691Z,6.88
2022-11-29T23:29:08.785Z,6.95
2022-11-29T23:31:35.991Z,5.80
2022-11-29T23:34:03.333Z,6.60
2022-11-29T23:36:30.275Z,6.53
2022-11-29T23:38:56.911Z,6.28
2022-11-29T23:41:23.757Z,6.45
2022-11-29T23:43:50.483Z,5.45
2022-11-29T23:46:22.980Z,6.70
2022-11-29T23:48:50.037Z,5.63
2022-11-29T23:51:17.841Z,5.32
2022-11-29T23:53:44.988Z,6.95
2022-11-29T23:56:14.951Z,5.93
2022-11-29T23:58:42.299Z,5.80
